Latest Weather Observations for Mount Isa

IDQ60801

Issued at 6:06 pm EST Monday 22 December 2014 (issued every 30 minutes, with the page automatically refreshed every 10 minutes)

About weather observations | Map of weather stations | Latest weather observations for QLD | Other Formats
Station Details ID: 029127 Name: MOUNT ISA AERO Lat: -20.68 Lon: 139.49 Height: 340.3 m
Data from the previous 72 hours. | See also: Recent months at Mount Isa
Date/Time
EST
Temp
°C
App
Temp
°C
Dew
Point
Rel
Hum
%
Delta-T
°C
Wind Press
QNH
hPa
Press
MSL
hPa
Rain
since 9 am
mm
Dir
 
Spd
km/h
Gust
km/h
Spd
kts
Gust
kts
22/06:00pm 35.3 34.2 18.6 37 11.1 NNE 22 32 12 17 1007.4 1004.9 0.0
22/05:30pm 37.2 36.3 14.8 26 14.2 N 13 30 7 16 1006.9 - 0.0
22/05:00pm 36.9 35.2 13.7 25 14.5 N 15 24 8 13 1007.0 - 0.0
22/04:30pm 36.7 34.5 14.5 26 14.0 NNE 19 22 10 12 1007.2 - 0.0
22/04:00pm 36.6 35.5 15.3 28 13.6 NNE 15 28 8 15 1007.5 - 0.0
22/03:30pm 37.2 36.1 15.3 27 14.0 NNE 15 24 8 13 1007.9 - 0.0
22/03:00pm 36.5 36.0 16.0 29 13.2 NNE 13 22 7 12 1008.4 1005.9 0.0
22/02:30pm 35.7 34.4 15.7 30 12.8 N 17 24 9 13 1008.7 - 0.0
22/02:00pm 36.0 35.1 15.9 30 12.9 N 15 24 8 13 1009.2 - 0.0
22/01:30pm 38.6 38.2 16.1 26 14.6 N 13 22 7 12 1009.5 - 0.0
22/01:00pm 36.5 35.7 16.0 29 13.2 NW 15 26 8 14 1010.0 - 0.0
22/12:30pm 36.0 34.2 16.1 30 12.8 N 20 32 11 17 1010.6 - 0.0
22/12:00pm 35.4 34.4 16.5 32 12.2 N 17 33 9 18 1011.0 1008.6 0.0
22/11:30am 36.2 34.5 17.2 32 12.4 N 22 32 12 17 1011.5 - 0.0
22/11:00am 35.4 34.3 17.3 34 11.8 NNE 19 33 10 18 1011.9 - 0.0
22/10:30am 34.1 31.9 16.9 36 11.1 NNE 24 35 13 19 1012.2 - 0.0
22/09:30am 32.4 32.8 19.1 45 8.8 NNE 15 22 8 12 1012.5 - 0.0
22/09:00am 31.4 31.2 18.6 46 8.4 N 17 26 9 14 1012.5 1010.0 0.0
22/08:30am 30.5 31.9 20.4 54 6.8 NNE 13 17 7 9 1012.4 - 0.0
22/08:00am 29.2 30.3 20.4 59 5.9 NNE 15 17 8 9 1012.3 - 0.0
22/07:30am 28.3 28.9 20.3 62 5.3 NE 17 22 9 12 1012.1 - 0.0
22/06:30am 26.4 28.4 20.7 71 3.8 NNE 11 13 6 7 1011.0 - 0.0
22/05:30am 25.2 27.9 20.7 76 3.0 NNE 7 9 4 5 1009.9 - 0.0
22/05:00am 25.8 28.2 20.9 74 3.3 NE 9 11 5 6 1009.5 - 0.0
22/04:30am 26.3 28.4 20.9 72 3.6 NE 11 13 6 7 1009.5 - 0.0
22/04:00am 26.5 29.0 21.1 72 3.6 NE 9 13 5 7 1009.2 - 0.0
22/03:30am 26.3 28.7 20.9 72 3.6 NE 9 13 5 7 1009.0 - 0.0
22/03:00am 26.5 29.0 21.0 72 3.7 NE 9 11 5 6 1008.9 1006.4 0.0
22/02:30am 26.1 28.4 20.7 72 3.6 NNE 9 9 5 5 1008.9 - 0.0
22/02:00am 26.6 29.4 20.9 71 3.8 N 7 7 4 4 1008.9 - 0.0
22/01:30am 26.9 29.7 20.9 69 4.0 NNE 7 7 4 4 1009.2 - 0.0
22/01:00am 27.9 31.0 21.4 67 4.4 N 7 9 4 5 1009.4 - 0.0
22/12:30am 28.8 31.3 21.1 63 5.2 N 9 11 5 6 1009.6 - 0.0
22/12:00am 29.3 31.3 20.8 60 5.7 N 11 15 6 8 1009.9 1007.4 0.0
 
Date/Time
EST
Temp
°C
App
Temp
°C
Dew
Point
Rel
Hum
%
Delta-T
°C
Wind Press
QNH
hPa
Press
MSL
hPa
Rain
since 9 am
mm
Dir
 
Spd
km/h
Gust
km/h
Spd
kts
Gust
kts
21/11:30pm 29.7 31.3 20.8 58 6.0 N 13 15 7 8 1010.2 - 0.0
21/11:00pm 30.2 31.1 20.0 54 6.8 N 15 19 8 10 1010.2 - 0.0
21/10:30pm 30.9 30.2 17.4 44 8.7 N 17 26 9 14 1010.1 - 0.0
21/10:00pm 31.3 30.1 18.5 46 8.4 NNE 22 32 12 17 1009.7 - 0.0
21/09:30pm 31.7 32.7 20.2 50 7.7 NNE 15 22 8 12 1009.1 - 0.0
21/09:00pm 32.2 31.5 19.6 47 8.4 NNE 22 30 12 16 1008.9 1006.4 0.0
21/08:30pm 32.6 32.9 19.6 46 8.7 NE 17 24 9 13 1008.6 - 0.0
21/08:00pm 33.0 33.0 20.1 46 8.7 NNE 20 28 11 15 1008.3 - 0.0
21/07:30pm 33.5 31.9 20.0 45 9.1 NNE 28 37 15 20 1008.2 - 0.0
21/07:00pm 34.8 33.1 18.1 37 11.0 NNE 24 37 13 20 1007.4 - 0.0
21/06:30pm 35.8 33.8 17.3 33 12.1 NE 24 37 13 20 1007.0 - 0.0
21/06:00pm 38.4 35.1 6.4 14 18.1 ESE 13 17 7 9 1006.6 1004.1 0.0
21/05:30pm 38.9 36.2 5.8 13 18.5 S 9 15 5 8 1006.4 - 0.0
21/05:00pm 38.5 37.1 5.6 13 18.3 N 2 9 1 5 1006.5 - 0.0
21/04:30pm 39.6 36.3 6.3 13 18.9 NE 13 19 7 10 1006.4 - 0.0
21/04:00pm 40.5 37.8 7.3 13 19.2 E 11 19 6 10 1006.7 - 0.0
21/03:30pm 39.9 37.0 6.6 13 19.0 NNE 11 17 6 9 1007.2 - 0.0
21/03:00pm 39.3 36.0 6.6 13 18.6 E 13 26 7 14 1007.7 1005.2 0.0
21/02:30pm 39.0 36.8 7.9 15 18.0 SE 9 13 5 7 1008.3 - 0.0
21/02:00pm 38.3 34.7 8.4 16 17.4 NE 17 24 9 13 1008.6 - 0.0
21/01:30pm 39.8 36.0 7.4 14 18.7 ENE 17 24 9 13 1009.1 - 0.0
21/01:00pm 38.5 34.3 5.8 13 18.3 ESE 17 28 9 15 1009.7 - 0.0
21/12:30pm 39.3 36.0 6.6 13 18.6 SE 13 20 7 11 1010.2 - 0.0
21/12:00pm 38.2 35.5 7.2 15 17.7 E 11 19 6 10 1010.7 1008.3 0.0
21/11:30am 38.9 36.4 8.3 15 17.8 N 11 28 6 15 1010.9 - 0.0
21/11:00am 37.1 34.6 9.6 19 16.2 NNE 13 22 7 12 1011.4 - 0.0
21/10:30am 37.7 35.2 10.9 20 16.1 NE 15 26 8 14 1011.5 - 0.0
21/10:00am 36.0 33.3 11.7 23 14.7 N 17 24 9 13 1011.6 - 0.0
21/09:30am 35.0 32.9 12.3 25 13.8 NNE 15 22 8 12 1011.6 - 0.0
21/09:00am 34.2 32.0 13.2 28 12.9 NNE 17 24 9 13 1011.5 1009.0 0.2
21/08:30am 33.3 30.3 12.7 28 12.5 NNE 20 28 11 15 1011.3 - 0.2
21/08:00am 32.1 30.4 12.3 29 11.9 NE 13 19 7 10 1011.0 - 0.2
21/07:30am 30.5 29.7 11.7 31 11.1 E 7 9 4 5 1010.9 - 0.0
21/07:00am 26.5 27.6 13.5 44 7.8 CALM 0 0 0 0 1010.5 - 0.0
21/06:30am 22.8 21.8 12.4 52 6.0 NNW 9 9 5 5 1010.2 - 0.0
21/06:00am 21.8 21.0 10.9 50 6.1 NW 6 11 3 6 1009.8 1007.3 0.0
21/05:30am 24.0 22.5 11.9 46 7.0 NE 11 15 6 8 1009.4 - 0.0
21/05:00am 25.7 24.3 9.4 35 9.1 NNW 7 9 4 5 1009.1 - 0.0
21/04:30am 24.2 23.4 11.0 43 7.5 NNE 6 7 3 4 1009.0 - 0.0
21/04:00am 25.0 23.9 10.8 41 8.1 N 7 9 4 5 1008.9 - 0.0
21/03:30am 22.6 21.7 11.5 49 6.3 NNW 7 9 4 5 1008.9 - 0.0
21/03:00am 23.6 22.5 12.0 48 6.7 E 9 13 5 7 1008.8 1006.3 0.0
21/02:30am 22.5 23.3 12.5 53 5.8 CALM 0 0 0 0 1008.7 - 0.0
21/02:00am 23.2 22.5 11.5 47 6.7 N 6 7 3 4 1008.9 - 0.0
21/01:30am 23.3 22.8 12.0 49 6.5 N 6 6 3 3 1009.1 - 0.0
21/01:00am 24.0 23.5 11.9 46 7.0 N 6 7 3 4 1009.4 - 0.0
21/12:30am 24.6 23.6 10.9 42 7.8 N 7 7 4 4 1009.8 - 0.0
21/12:00am 25.2 25.2 11.0 41 8.1 E 2 6 1 3 1009.9 1007.4 0.0
 
Date/Time
EST
Temp
°C
App
Temp
°C
Dew
Point
Rel
Hum
%
Delta-T
°C
Wind Press
QNH
hPa
Press
MSL
hPa
Rain
since 9 am
mm
Dir
 
Spd
km/h
Gust
km/h
Spd
kts
Gust
kts
20/11:30pm 26.3 26.5 10.7 37 8.9 CALM 0 0 0 0 1010.0 - 0.0
20/11:00pm 27.9 26.7 9.5 31 10.4 ESE 6 7 3 4 1009.9 - 0.0
20/10:30pm 27.3 26.3 10.3 34 9.7 SE 6 7 3 4 1009.8 - 0.0
20/10:00pm 27.9 26.6 11.2 35 9.7 S 9 11 5 6 1009.7 - 0.0
20/09:30pm 28.6 27.2 11.0 33 10.2 S 9 11 5 6 1009.5 - 0.0
20/09:00pm 30.0 28.8 10.2 29 11.4 SSE 7 9 4 5 1009.5 1007.0 0.0
20/08:30pm 31.8 29.9 10.6 27 12.4 SSE 11 13 6 7 1009.1 - 0.0
20/08:00pm 33.0 31.4 10.3 25 13.3 E 9 13 5 7 1008.8 - 0.0
20/07:30pm 34.4 32.4 8.6 20 14.8 ESE 9 11 5 6 1008.5 - 0.0
20/07:00pm 35.7 33.0 7.5 17 16.0 ESE 11 17 6 9 1008.2 - 0.0
20/06:30pm 37.1 34.4 7.2 16 17.0 S 11 15 6 8 1007.9 - 0.0
20/06:00pm 37.6 33.4 5.6 14 17.8 S 17 22 9 12 1007.8 1005.4 0.0
20/05:30pm 37.4 33.6 5.9 14 17.5 SW 15 22 8 12 1007.5 - 0.0
20/05:00pm 37.9 34.3 6.9 15 17.6 S 15 22 8 12 1007.5 - 0.0
20/04:30pm 37.2 34.1 7.4 16 17.0 S 13 17 7 9 1007.7 - 0.0
20/04:00pm 38.4 35.2 7.0 14 17.9 S 13 22 7 12 1008.1 - 0.0
20/03:30pm 36.7 33.1 9.7 19 15.9 SSE 19 28 10 15 1008.4 - 0.0
20/03:00pm 36.5 34.5 10.2 20 15.6 S 11 19 6 10 1008.9 1006.4 0.0
20/02:30pm 37.1 34.6 9.6 19 16.2 SSE 13 19 7 10 1009.3 - 0.0
20/02:00pm 37.7 35.3 10.1 19 16.4 SE 13 20 7 11 1009.7 - 0.0
20/01:30pm 36.0 32.1 9.5 20 15.5 E 20 30 11 16 1010.2 - 0.0
20/01:00pm 36.7 33.4 10.8 21 15.5 ESE 19 28 10 15 1010.6 - 0.0
20/12:30pm 35.9 32.6 11.7 23 14.6 E 20 37 11 20 1011.4 - 0.0
20/12:00pm 35.8 32.0 11.0 22 14.8 ENE 22 37 12 20 1011.7 1009.2 0.0
20/11:30am 36.5 32.9 10.7 21 15.4 NE 20 28 11 15 1012.1 - 0.0
20/11:00am 35.9 31.2 9.3 19 15.5 E 24 39 13 21 1012.3 - 0.0
20/10:30am 35.3 30.1 10.2 21 14.8 E 28 41 15 22 1012.5 - 0.0
20/10:00am 35.5 30.3 11.6 23 14.4 E 30 41 16 22 1012.6 - 0.0
20/09:30am 34.2 29.6 10.9 24 13.8 ESE 26 39 14 21 1012.8 - 0.0
20/09:00am 33.5 28.7 11.5 26 13.1 ESE 28 41 15 22 1012.9 1010.4 0.0
20/08:30am 32.9 28.5 11.6 27 12.7 E 26 35 14 19 1012.8 - 0.0
20/08:00am 32.3 29.1 11.4 27 12.4 E 19 28 10 15 1012.9 - 0.0
20/07:30am 31.0 28.5 11.0 29 11.7 E 15 19 8 10 1012.8 - 0.0
20/07:00am 29.8 26.8 9.1 27 11.7 ESE 15 19 8 10 1012.3 - 0.0
20/06:30am 28.2 25.5 7.2 26 11.4 SE 11 13 6 7 1011.7 - 0.0
20/06:00am 28.0 24.7 6.6 25 11.5 SSE 13 15 7 8 1011.4 1008.9 0.0
20/05:30am 27.8 24.7 7.1 27 11.2 SSE 13 19 7 10 1011.2 - 0.0
20/05:00am 28.4 24.9 7.0 26 11.6 SE 15 20 8 11 1010.9 - 0.0
20/04:30am 29.2 24.6 6.4 23 12.3 SSE 20 35 11 19 1010.6 - 0.0
20/04:00am 29.4 25.8 6.7 24 12.3 SE 15 20 8 11 1010.5 - 0.0
20/03:30am 29.7 25.3 6.7 23 12.5 SSE 19 26 10 14 1010.5 - 0.0
20/03:00am 29.5 25.2 7.2 24 12.2 SSE 19 26 10 14 1010.6 1008.2 0.0
20/02:30am 29.7 26.5 7.0 24 12.4 SSE 13 19 7 10 1010.8 - 0.0
20/02:00am 30.3 26.4 6.9 23 12.8 SSE 17 22 9 12 1010.9 - 0.0
20/01:30am 30.2 26.4 7.6 24 12.5 SSE 17 26 9 14 1011.2 - 0.0
20/01:00am 30.2 26.7 8.7 26 12.1 SSE 17 22 9 12 1011.3 - 0.0
20/12:30am 30.6 27.1 8.6 25 12.4 S 17 19 9 10 1011.9 - 0.0
20/12:00am 30.7 28.0 9.0 26 12.3 SSE 13 17 7 9 1012.4 1009.9 0.0
 
Date/Time
EST
Temp
°C
App
Temp
°C
Dew
Point
Rel
Hum
%
Delta-T
°C
Wind Press
QNH
hPa
Press
MSL
hPa
Rain
since 9 am
mm
Dir
 
Spd
km/h
Gust
km/h
Spd
kts
Gust
kts
19/11:30pm 30.9 27.9 9.1 25 12.4 SSE 15 17 8 9 1012.6 - 0.0
19/11:00pm 31.5 27.9 8.4 23 13.0 SSE 17 19 9 10 1012.7 - 0.0
19/10:30pm 31.8 28.5 8.1 23 13.3 SSE 15 20 8 11 1012.7 - 0.0
19/10:00pm 32.2 29.0 8.3 22 13.5 SSE 15 24 8 13 1012.4 - 0.0
19/09:30pm 32.7 28.6 8.6 22 13.7 SSE 20 28 11 15 1012.2 - 0.0
19/09:00pm 33.0 30.3 12.9 29 12.2 SSE 19 28 10 15 1011.9 1009.4 0.0
19/08:30pm 33.2 30.6 13.9 31 11.9 SSE 20 28 11 15 1011.8 - 0.0
19/08:00pm 33.4 30.6 14.2 31 11.9 SSE 22 32 12 17 1011.3 - 0.0
19/07:30pm 33.8 31.4 13.7 29 12.4 SSE 19 26 10 14 1010.8 - 0.0
19/07:00pm 34.2 31.1 13.4 28 12.8 SSE 22 32 12 17 1010.3 - 0.0
19/06:30pm 35.0 32.2 14.2 28 13.0 SSE 22 33 12 18 1009.8 - 0.0

Other Formats:

Comma delimited format used in spreadsheet applications
http://www.bom.gov.au/fwo/IDQ60801/IDQ60801.94332.axf

JavaScript Object Notation format (JSON) in row-major order
http://www.bom.gov.au/fwo/IDQ60801/IDQ60801.94332.json